Virginia, Illinois
Current Conditions -  °F | °C
As of 2:35 AM on Friday 24 Oct 2014 (Local Time) from KIJX Reporting Station
Overcast Overcast  
Wind Chill: 54°   Ceiling: 1900
Heat Index: 54°   Visibility: 10mi
Dew Point: 49°   Wind: 5mph
Humidity: 83%   Direction: 210°SSW
Pressure: 30.07"   Gusts: NA
Location:  39.95°N, 90.21°W
Report Text: KIJX 240735Z AUTO 21004KT 10SM OVC019 12/09 A3007 RMK AO2 T01200092
Loading
Personal Weather Stations






























Interactive Weather Map
Tropical Storm Tracking
New forecast layout! Learn more

10-Day Weather Forecast

Advertisements
Track Severe Weather on mobile